sensor_id;sensor_type;location;lat;lon;timestamp;P1;durP1;ratioP1;P2;durP2;ratioP2
6467;SDS011;3267;48.794;9.928;2024-03-02T05:16:17;7.85;;;6.05;;
6467;SDS011;3267;48.794;9.928;2024-03-02T05:18:43;8.43;;;6.30;;
6467;SDS011;3267;48.794;9.928;2024-03-02T05:21:09;7.53;;;5.68;;
6467;SDS011;3267;48.794;9.928;2024-03-02T05:23:36;7.47;;;6.40;;
6467;SDS011;3267;48.794;9.928;2024-03-02T05:26:02;7.17;;;5.87;;
6467;SDS011;3267;48.794;9.928;2024-03-02T05:28:28;7.05;;;5.40;;
6467;SDS011;3267;48.794;9.928;2024-03-02T05:30:55;8.02;;;4.05;;
6467;SDS011;3267;48.794;9.928;2024-03-02T05:33:21;3.58;;;3.25;;
6467;SDS011;3267;48.794;9.928;2024-03-02T05:35:47;1.17;;;1.07;;
6467;SDS011;3267;48.794;9.928;2024-03-02T05:38:15;7.50;;;6.23;;
6467;SDS011;3267;48.794;9.928;2024-03-02T05:40:41;6.00;;;5.13;;
6467;SDS011;3267;48.794;9.928;2024-03-02T05:43:07;5.68;;;5.07;;
6467;SDS011;3267;48.794;9.928;2024-03-02T05:45:33;7.22;;;4.70;;
6467;SDS011;3267;48.794;9.928;2024-03-02T05:47:59;5.85;;;5.03;;
6467;SDS011;3267;48.794;9.928;2024-03-02T05:50:25;5.85;;;5.22;;
6467;SDS011;3267;48.794;9.928;2024-03-02T05:52:51;3.13;;;2.85;;
6467;SDS011;3267;48.794;9.928;2024-03-02T05:55:17;2.33;;;2.15;;
6467;SDS011;3267;48.794;9.928;2024-03-02T05:57:43;6.95;;;5.57;;
6467;SDS011;3267;48.794;9.928;2024-03-02T06:00:10;5.95;;;4.95;;
6467;SDS011;3267;48.794;9.928;2024-03-02T06:02:39;7.60;;;5.82;;
6467;SDS011;3267;48.794;9.928;2024-03-02T06:05:06;5.80;;;4.07;;
6467;SDS011;3267;48.794;9.928;2024-03-02T06:07:32;5.57;;;3.67;;
6467;SDS011;3267;48.794;9.928;2024-03-02T06:09:58;4.85;;;4.30;;
6467;SDS011;3267;48.794;9.928;2024-03-02T06:12:24;6.57;;;5.20;;
6467;SDS011;3267;48.794;9.928;2024-03-02T06:14:50;6.22;;;4.78;;
6467;SDS011;3267;48.794;9.928;2024-03-02T06:17:16;5.38;;;4.88;;
6467;SDS011;3267;48.794;9.928;2024-03-02T06:19:43;6.07;;;5.13;;
6467;SDS011;3267;48.794;9.928;2024-03-02T06:22:09;6.72;;;4.53;;
6467;SDS011;3267;48.794;9.928;2024-03-02T06:24:36;6.78;;;5.22;;
6467;SDS011;3267;48.794;9.928;2024-03-02T06:27:03;3.55;;;2.85;;
6467;SDS011;3267;48.794;9.928;2024-03-02T06:29:32;2.50;;;2.10;;
6467;SDS011;3267;48.794;9.928;2024-03-02T06:31:58;3.20;;;2.25;;
6467;SDS011;3267;48.794;9.928;2024-03-02T06:34:25;4.57;;;3.85;;
6467;SDS011;3267;48.794;9.928;2024-03-02T06:36:51;5.50;;;4.70;;
6467;SDS011;3267;48.794;9.928;2024-03-02T06:39:17;4.45;;;3.72;;
6467;SDS011;3267;48.794;9.928;2024-03-02T06:41:43;5.53;;;4.60;;
6467;SDS011;3267;48.794;9.928;2024-03-02T06:44:09;7.65;;;4.90;;
6467;SDS011;3267;48.794;9.928;2024-03-02T06:46:35;5.47;;;4.88;;
6467;SDS011;3267;48.794;9.928;2024-03-02T06:49:01;7.93;;;5.65;;
6467;SDS011;3267;48.794;9.928;2024-03-02T06:51:29;6.22;;;5.38;;
6467;SDS011;3267;48.794;9.928;2024-03-02T06:53:55;11.32;;;5.93;;
6467;SDS011;3267;48.794;9.928;2024-03-02T06:56:21;4.35;;;3.95;;
6467;SDS011;3267;48.794;9.928;2024-03-02T06:58:47;7.07;;;4.88;;
6467;SDS011;3267;48.794;9.928;2024-03-02T07:01:13;6.22;;;4.50;;
6467;SDS011;3267;48.794;9.928;2024-03-02T07:03:39;5.25;;;4.22;;
6467;SDS011;3267;48.794;9.928;2024-03-02T07:06:06;5.70;;;4.00;;
6467;SDS011;3267;48.794;9.928;2024-03-02T07:08:32;4.30;;;3.85;;
6467;SDS011;3267;48.794;9.928;2024-03-02T07:10:58;5.22;;;4.68;;
6467;SDS011;3267;48.794;9.928;2024-03-02T07:13:24;4.90;;;4.40;;
6467;SDS011;3267;48.794;9.928;2024-03-02T07:15:50;6.45;;;5.40;;
6467;SDS011;3267;48.794;9.928;2024-03-02T07:18:29;6.22;;;4.97;;
6467;SDS011;3267;48.794;9.928;2024-03-02T07:20:58;6.05;;;5.30;;
6467;SDS011;3267;48.794;9.928;2024-03-02T07:23:26;5.25;;;4.40;;
6467;SDS011;3267;48.794;9.928;2024-03-02T07:25:52;4.72;;;4.30;;
6467;SDS011;3267;48.794;9.928;2024-03-02T07:28:21;6.85;;;4.45;;
6467;SDS011;3267;48.794;9.928;2024-03-02T07:30:57;2.00;;;1.88;;
6467;SDS011;3267;48.794;9.928;2024-03-02T07:33:23;3.92;;;3.50;;
6467;SDS011;3267;48.794;9.928;2024-03-02T07:35:50;4.00;;;3.20;;
6467;SDS011;3267;48.794;9.928;2024-03-02T07:38:16;5.85;;;4.45;;
6467;SDS011;3267;48.794;9.928;2024-03-02T07:40:42;2.92;;;2.60;;
6467;SDS011;3267;48.794;9.928;2024-03-02T07:43:08;5.38;;;4.43;;
6467;SDS011;3267;48.794;9.928;2024-03-02T07:45:34;4.18;;;3.78;;
6467;SDS011;3267;48.794;9.928;2024-03-02T07:48:01;4.68;;;3.83;;
6467;SDS011;3267;48.794;9.928;2024-03-02T07:50:29;1.98;;;1.88;;
6467;SDS011;3267;48.794;9.928;2024-03-02T07:52:55;3.92;;;3.60;;
6467;SDS011;3267;48.794;9.928;2024-03-02T07:55:21;2.00;;;1.90;;
6467;SDS011;3267;48.794;9.928;2024-03-02T07:57:50;4.85;;;4.35;;
6467;SDS011;3267;48.794;9.928;2024-03-02T08:00:16;2.75;;;2.40;;
6467;SDS011;3267;48.794;9.928;2024-03-02T08:02:42;2.85;;;2.60;;
6467;SDS011;3267;48.794;9.928;2024-03-02T08:05:09;3.47;;;2.38;;
6467;SDS011;3267;48.794;9.928;2024-03-02T08:07:35;4.22;;;3.83;;
6467;SDS011;3267;48.794;9.928;2024-03-02T08:10:02;0.68;;;0.68;;
6467;SDS011;3267;48.794;9.928;2024-03-02T08:12:28;2.95;;;2.47;;
6467;SDS011;3267;48.794;9.928;2024-03-02T08:14:54;3.25;;;2.95;;
6467;SDS011;3267;48.794;9.928;2024-03-02T08:17:20;1.65;;;1.55;;
6467;SDS011;3267;48.794;9.928;2024-03-02T08:19:46;0.70;;;0.70;;
6467;SDS011;3267;48.794;9.928;2024-03-02T08:22:14;4.40;;;4.00;;
6467;SDS011;3267;48.794;9.928;2024-03-02T08:24:40;4.65;;;3.78;;
6467;SDS011;3267;48.794;9.928;2024-03-02T08:27:06;3.33;;;2.67;;
6467;SDS011;3267;48.794;9.928;2024-03-02T08:29:32;4.53;;;3.90;;
6467;SDS011;3267;48.794;9.928;2024-03-02T08:31:58;1.08;;;1.08;;
6467;SDS011;3267;48.794;9.928;2024-03-02T08:34:24;5.05;;;4.55;;
6467;SDS011;3267;48.794;9.928;2024-03-02T08:36:50;4.93;;;4.43;;
6467;SDS011;3267;48.794;9.928;2024-03-02T08:39:17;2.55;;;2.35;;
6467;SDS011;3267;48.794;9.928;2024-03-02T08:41:44;5.95;;;4.32;;
6467;SDS011;3267;48.794;9.928;2024-03-02T08:44:11;5.03;;;4.45;;
6467;SDS011;3267;48.794;9.928;2024-03-02T08:46:39;4.97;;;4.45;;
6467;SDS011;3267;48.794;9.928;2024-03-02T08:49:05;4.13;;;3.72;;
6467;SDS011;3267;48.794;9.928;2024-03-02T08:51:31;5.38;;;4.88;;
6467;SDS011;3267;48.794;9.928;2024-03-02T08:53:58;3.03;;;2.45;;
6467;SDS011;3267;48.794;9.928;2024-03-02T08:56:24;4.55;;;3.50;;
6467;SDS011;3267;48.794;9.928;2024-03-02T08:58:51;4.53;;;4.07;;
6467;SDS011;3267;48.794;9.928;2024-03-02T09:01:17;4.07;;;3.75;;
6467;SDS011;3267;48.794;9.928;2024-03-02T09:03:44;5.70;;;3.40;;
6467;SDS011;3267;48.794;9.928;2024-03-02T09:06:12;3.67;;;3.30;;
6467;SDS011;3267;48.794;9.928;2024-03-02T09:08:39;4.95;;;3.50;;
6467;SDS011;3267;48.794;9.928;2024-03-02T09:11:05;3.22;;;2.67;;
6467;SDS011;3267;48.794;9.928;2024-03-02T09:13:32;4.32;;;3.83;;
6467;SDS011;3267;48.794;9.928;2024-03-02T09:15:58;4.22;;;3.70;;
6467;SDS011;3267;48.794;9.928;2024-03-02T09:18:27;4.05;;;3.65;;
6467;SDS011;3267;48.794;9.928;2024-03-02T09:20:53;2.28;;;1.80;;
6467;SDS011;3267;48.794;9.928;2024-03-02T09:23:20;3.10;;;2.80;;
6467;SDS011;3267;48.794;9.928;2024-03-02T09:25:46;3.50;;;3.13;;
6467;SDS011;3267;48.794;9.928;2024-03-02T09:28:12;3.13;;;2.75;;
6467;SDS011;3267;48.794;9.928;2024-03-02T09:30:38;2.90;;;2.70;;
6467;SDS011;3267;48.794;9.928;2024-03-02T09:33:04;3.72;;;2.90;;
6467;SDS011;3267;48.794;9.928;2024-03-02T09:35:31;3.10;;;2.80;;
6467;SDS011;3267;48.794;9.928;2024-03-02T09:37:57;3.13;;;2.80;;
6467;SDS011;3267;48.794;9.928;2024-03-02T09:40:22;3.85;;;3.55;;
6467;SDS011;3267;48.794;9.928;2024-03-02T09:42:48;3.30;;;3.03;;
6467;SDS011;3267;48.794;9.928;2024-03-02T09:45:24;3.72;;;3.42;;
6467;SDS011;3267;48.794;9.928;2024-03-02T09:47:50;4.93;;;3.25;;
6467;SDS011;3267;48.794;9.928;2024-03-02T09:50:16;3.20;;;2.90;;
6467;SDS011;3267;48.794;9.928;2024-03-02T09:52:42;3.83;;;3.53;;
6467;SDS011;3267;48.794;9.928;2024-03-02T09:55:08;5.10;;;3.72;;
6467;SDS011;3267;48.794;9.928;2024-03-02T09:57:34;3.50;;;3.20;;
6467;SDS011;3267;48.794;9.928;2024-03-02T10:00:00;3.75;;;3.45;;
6467;SDS011;3267;48.794;9.928;2024-03-02T10:02:26;3.55;;;3.25;;
6467;SDS011;3267;48.794;9.928;2024-03-02T10:04:52;3.63;;;3.15;;
6467;SDS011;3267;48.794;9.928;2024-03-02T10:07:18;2.88;;;2.67;;
6467;SDS011;3267;48.794;9.928;2024-03-02T10:09:47;2.20;;;1.40;;
6467;SDS011;3267;48.794;9.928;2024-03-02T10:12:15;2.75;;;2.50;;
6467;SDS011;3267;48.794;9.928;2024-03-02T10:14:41;1.90;;;1.77;;
6467;SDS011;3267;48.794;9.928;2024-03-02T10:17:08;2.58;;;2.38;;
6467;SDS011;3267;48.794;9.928;2024-03-02T10:19:35;2.38;;;2.17;;
6467;SDS011;3267;48.794;9.928;2024-03-02T10:22:02;2.22;;;2.03;;
6467;SDS011;3267;48.794;9.928;2024-03-02T10:24:41;2.25;;;2.05;;
6467;SDS011;3267;48.794;9.928;2024-03-02T10:29:42;2.67;;;2.47;;
6467;SDS011;3267;48.794;9.928;2024-03-02T10:32:10;4.40;;;2.42;;
6467;SDS011;3267;48.794;9.928;2024-03-02T10:34:39;2.08;;;1.90;;
6467;SDS011;3267;48.794;9.928;2024-03-02T10:37:06;1.92;;;1.83;;
6467;SDS011;3267;48.794;9.928;2024-03-02T10:39:34;1.60;;;1.50;;
6467;SDS011;3267;48.794;9.928;2024-03-02T10:42:01;2.53;;;2.10;;
6467;SDS011;3267;48.794;9.928;2024-03-02T10:44:28;3.53;;;1.70;;
6467;SDS011;3267;48.794;9.928;2024-03-02T10:46:55;2.58;;;1.75;;
6467;SDS011;3267;48.794;9.928;2024-03-02T10:49:23;2.30;;;2.03;;
6467;SDS011;3267;48.794;9.928;2024-03-02T10:51:50;4.47;;;1.67;;
6467;SDS011;3267;48.794;9.928;2024-03-02T10:54:16;4.32;;;2.05;;
6467;SDS011;3267;48.794;9.928;2024-03-02T10:56:44;1.92;;;1.70;;
6467;SDS011;3267;48.794;9.928;2024-03-02T11:02:01;1.70;;;1.60;;
6467;SDS011;3267;48.794;9.928;2024-03-02T11:04:28;1.48;;;1.38;;
6467;SDS011;3267;48.794;9.928;2024-03-02T11:06:58;1.63;;;1.52;;
6467;SDS011;3267;48.794;9.928;2024-03-02T11:09:28;1.42;;;1.33;;
6467;SDS011;3267;48.794;9.928;2024-03-02T11:12:03;1.50;;;1.40;;
6467;SDS011;3267;48.794;9.928;2024-03-02T11:14:40;1.40;;;1.30;;
6467;SDS011;3267;48.794;9.928;2024-03-02T11:17:10;1.98;;;1.40;;
6467;SDS011;3267;48.794;9.928;2024-03-02T11:19:37;1.90;;;1.25;;
6467;SDS011;3267;48.794;9.928;2024-03-02T11:22:04;1.35;;;1.35;;
6467;SDS011;3267;48.794;9.928;2024-03-02T11:24:32;1.60;;;1.50;;
6467;SDS011;3267;48.794;9.928;2024-03-02T11:26:58;1.40;;;1.30;;
6467;SDS011;3267;48.794;9.928;2024-03-02T11:32:01;1.25;;;1.15;;
6467;SDS011;3267;48.794;9.928;2024-03-02T11:34:34;1.50;;;1.40;;
6467;SDS011;3267;48.794;9.928;2024-03-02T11:37:01;1.20;;;1.10;;
6467;SDS011;3267;48.794;9.928;2024-03-02T11:39:28;1.50;;;1.40;;
6467;SDS011;3267;48.794;9.928;2024-03-02T11:41:55;1.08;;;1.00;;
6467;SDS011;3267;48.794;9.928;2024-03-02T11:44:22;1.20;;;1.10;;
6467;SDS011;3267;48.794;9.928;2024-03-02T11:46:59;1.20;;;1.10;;
6467;SDS011;3267;48.794;9.928;2024-03-02T11:49:39;1.13;;;1.13;;
6467;SDS011;3267;48.794;9.928;2024-03-02T11:52:09;3.92;;;1.55;;
6467;SDS011;3267;48.794;9.928;2024-03-02T11:54:36;1.33;;;1.23;;
6467;SDS011;3267;48.794;9.928;2024-03-02T11:57:07;0.80;;;0.80;;
6467;SDS011;3267;48.794;9.928;2024-03-02T11:59:33;1.00;;;0.90;;
6467;SDS011;3267;48.794;9.928;2024-03-02T12:01:59;1.10;;;1.00;;
6467;SDS011;3267;48.794;9.928;2024-03-02T12:04:25;2.50;;;0.80;;
6467;SDS011;3267;48.794;9.928;2024-03-02T12:06:55;0.80;;;0.80;;
6467;SDS011;3267;48.794;9.928;2024-03-02T12:09:22;1.05;;;0.63;;
6467;SDS011;3267;48.794;9.928;2024-03-02T12:11:47;1.00;;;1.00;;
6467;SDS011;3267;48.794;9.928;2024-03-02T12:14:13;1.08;;;1.05;;
6467;SDS011;3267;48.794;9.928;2024-03-02T12:16:39;1.13;;;1.10;;
6467;SDS011;3267;48.794;9.928;2024-03-02T12:19:09;0.80;;;0.80;;
6467;SDS011;3267;48.794;9.928;2024-03-02T12:21:34;1.17;;;1.08;;
6467;SDS011;3267;48.794;9.928;2024-03-02T12:24:01;0.80;;;0.80;;
6467;SDS011;3267;48.794;9.928;2024-03-02T12:26:27;0.60;;;0.60;;
6467;SDS011;3267;48.794;9.928;2024-03-02T12:28:54;1.10;;;1.10;;
6467;SDS011;3267;48.794;9.928;2024-03-02T12:31:20;1.95;;;1.00;;
6467;SDS011;3267;48.794;9.928;2024-03-02T12:33:46;0.95;;;0.95;;
6467;SDS011;3267;48.794;9.928;2024-03-02T12:36:13;1.17;;;1.08;;
6467;SDS011;3267;48.794;9.928;2024-03-02T12:38:43;0.90;;;0.90;;
6467;SDS011;3267;48.794;9.928;2024-03-02T12:41:09;0.80;;;0.80;;
6467;SDS011;3267;48.794;9.928;2024-03-02T12:43:35;1.25;;;1.00;;
6467;SDS011;3267;48.794;9.928;2024-03-02T12:46:00;1.23;;;0.73;;
6467;SDS011;3267;48.794;9.928;2024-03-02T12:48:26;0.95;;;0.95;;
6467;SDS011;3267;48.794;9.928;2024-03-02T12:50:52;1.15;;;1.00;;
6467;SDS011;3267;48.794;9.928;2024-03-02T12:53:17;0.93;;;0.93;;
6467;SDS011;3267;48.794;9.928;2024-03-02T12:55:43;1.05;;;1.00;;
6467;SDS011;3267;48.794;9.928;2024-03-02T12:58:16;0.80;;;0.80;;
6467;SDS011;3267;48.794;9.928;2024-03-02T13:00:44;1.05;;;1.05;;
6467;SDS011;3267;48.794;9.928;2024-03-02T13:03:09;0.98;;;0.98;;
6467;SDS011;3267;48.794;9.928;2024-03-02T13:05:36;0.75;;;0.75;;
6467;SDS011;3267;48.794;9.928;2024-03-02T13:08:02;0.80;;;0.80;;
6467;SDS011;3267;48.794;9.928;2024-03-02T13:10:29;0.90;;;0.90;;
6467;SDS011;3267;48.794;9.928;2024-03-02T13:12:56;1.55;;;1.20;;
6467;SDS011;3267;48.794;9.928;2024-03-02T13:15:22;1.20;;;1.10;;
6467;SDS011;3267;48.794;9.928;2024-03-02T13:17:48;2.05;;;1.13;;
6467;SDS011;3267;48.794;9.928;2024-03-02T13:20:14;1.10;;;1.00;;
6467;SDS011;3267;48.794;9.928;2024-03-02T13:22:40;1.38;;;1.05;;
6467;SDS011;3267;48.794;9.928;2024-03-02T13:25:06;2.08;;;1.52;;
6467;SDS011;3267;48.794;9.928;2024-03-02T13:27:35;1.35;;;0.98;;
6467;SDS011;3267;48.794;9.928;2024-03-02T13:30:01;0.80;;;0.80;;
6467;SDS011;3267;48.794;9.928;2024-03-02T13:32:28;1.10;;;1.00;;
6467;SDS011;3267;48.794;9.928;2024-03-02T13:34:54;1.08;;;1.00;;
6467;SDS011;3267;48.794;9.928;2024-03-02T13:37:20;1.45;;;1.02;;
6467;SDS011;3267;48.794;9.928;2024-03-02T13:39:49;2.00;;;0.70;;
6467;SDS011;3267;48.794;9.928;2024-03-02T13:42:15;0.70;;;0.70;;
6467;SDS011;3267;48.794;9.928;2024-03-02T13:44:44;1.85;;;0.70;;
6467;SDS011;3267;48.794;9.928;2024-03-02T13:47:16;1.20;;;0.80;;
6467;SDS011;3267;48.794;9.928;2024-03-02T13:49:41;2.35;;;0.90;;
6467;SDS011;3267;48.794;9.928;2024-03-02T13:52:11;5.85;;;4.57;;
6467;SDS011;3267;48.794;9.928;2024-03-02T13:54:40;6.65;;;3.75;;
6467;SDS011;3267;48.794;9.928;2024-03-02T13:57:07;1.67;;;1.58;;
6467;SDS011;3267;48.794;9.928;2024-03-02T13:59:33;1.40;;;1.30;;
6467;SDS011;3267;48.794;9.928;2024-03-02T14:02:00;6.22;;;1.73;;
6467;SDS011;3267;48.794;9.928;2024-03-02T14:04:26;3.08;;;1.70;;
6467;SDS011;3267;48.794;9.928;2024-03-02T14:06:52;1.80;;;1.70;;
6467;SDS011;3267;48.794;9.928;2024-03-02T14:09:18;1.85;;;1.70;;
6467;SDS011;3267;48.794;9.928;2024-03-02T14:11:45;2.33;;;1.88;;
6467;SDS011;3267;48.794;9.928;2024-03-02T14:14:11;2.50;;;2.20;;
6467;SDS011;3267;48.794;9.928;2024-03-02T14:16:37;2.85;;;1.50;;
6467;SDS011;3267;48.794;9.928;2024-03-02T14:19:02;1.40;;;1.30;;
6467;SDS011;3267;48.794;9.928;2024-03-02T14:21:30;1.67;;;1.48;;
6467;SDS011;3267;48.794;9.928;2024-03-02T14:23:55;1.98;;;1.80;;
6467;SDS011;3267;48.794;9.928;2024-03-02T14:26:21;2.38;;;1.75;;
6467;SDS011;3267;48.794;9.928;2024-03-02T14:28:47;1.80;;;1.70;;
6467;SDS011;3267;48.794;9.928;2024-03-02T14:31:14;4.30;;;1.77;;
6467;SDS011;3267;48.794;9.928;2024-03-02T14:33:41;1.90;;;1.80;;
6467;SDS011;3267;48.794;9.928;2024-03-02T14:36:07;2.22;;;2.03;;
6467;SDS011;3267;48.794;9.928;2024-03-02T14:38:33;2.22;;;1.40;;
6467;SDS011;3267;48.794;9.928;2024-03-02T14:40:59;1.88;;;1.70;;
6467;SDS011;3267;48.794;9.928;2024-03-02T14:43:25;2.85;;;1.33;;
6467;SDS011;3267;48.794;9.928;2024-03-02T14:45:59;1.33;;;1.23;;
6467;SDS011;3267;48.794;9.928;2024-03-02T14:48:25;1.63;;;1.52;;
6467;SDS011;3267;48.794;9.928;2024-03-02T14:50:51;1.55;;;1.45;;
6467;SDS011;3267;48.794;9.928;2024-03-02T14:53:17;2.38;;;1.90;;
6467;SDS011;3267;48.794;9.928;2024-03-02T14:55:43;2.70;;;1.70;;
6467;SDS011;3267;48.794;9.928;2024-03-02T14:58:09;1.92;;;1.60;;
6467;SDS011;3267;48.794;9.928;2024-03-02T15:00:35;2.42;;;1.98;;
6467;SDS011;3267;48.794;9.928;2024-03-02T15:03:00;1.67;;;1.58;;
6467;SDS011;3267;48.794;9.928;2024-03-02T15:05:26;1.75;;;1.65;;
6467;SDS011;3267;48.794;9.928;2024-03-02T15:07:52;2.83;;;1.83;;
6467;SDS011;3267;48.794;9.928;2024-03-02T15:10:18;3.15;;;1.67;;
6467;SDS011;3267;48.794;9.928;2024-03-02T15:12:44;1.92;;;1.83;;
6467;SDS011;3267;48.794;9.928;2024-03-02T15:15:10;2.42;;;1.90;;
6467;SDS011;3267;48.794;9.928;2024-03-02T15:17:36;5.65;;;5.15;;
6467;SDS011;3267;48.794;9.928;2024-03-02T15:20:02;3.20;;;2.15;;
6467;SDS011;3267;48.794;9.928;2024-03-02T15:22:29;2.33;;;2.15;;
6467;SDS011;3267;48.794;9.928;2024-03-02T15:24:55;3.00;;;2.08;;
6467;SDS011;3267;48.794;9.928;2024-03-02T15:27:21;2.55;;;2.35;;
6467;SDS011;3267;48.794;9.928;2024-03-02T15:29:46;1.80;;;1.70;;
6467;SDS011;3267;48.794;9.928;2024-03-02T15:32:15;2.30;;;1.75;;
6467;SDS011;3267;48.794;9.928;2024-03-02T15:34:41;2.88;;;1.90;;
6467;SDS011;3267;48.794;9.928;2024-03-02T15:37:08;2.72;;;2.20;;
6467;SDS011;3267;48.794;9.928;2024-03-02T15:39:34;2.35;;;2.15;;
6467;SDS011;3267;48.794;9.928;2024-03-02T15:41:59;2.70;;;2.50;;
6467;SDS011;3267;48.794;9.928;2024-03-02T15:44:25;2.53;;;2.25;;
6467;SDS011;3267;48.794;9.928;2024-03-02T15:46:51;5.57;;;2.40;;
6467;SDS011;3267;48.794;9.928;2024-03-02T15:49:17;4.10;;;2.80;;
6467;SDS011;3267;48.794;9.928;2024-03-02T15:51:42;3.95;;;3.28;;
6467;SDS011;3267;48.794;9.928;2024-03-02T15:54:12;3.50;;;2.70;;
6467;SDS011;3267;48.794;9.928;2024-03-02T15:56:38;4.65;;;3.50;;
6467;SDS011;3267;48.794;9.928;2024-03-02T15:59:04;4.18;;;3.40;;
6467;SDS011;3267;48.794;9.928;2024-03-02T16:01:31;4.07;;;3.55;;
6467;SDS011;3267;48.794;9.928;2024-03-02T16:03:57;5.05;;;3.67;;
6467;SDS011;3267;48.794;9.928;2024-03-02T16:06:23;5.20;;;4.60;;
6467;SDS011;3267;48.794;9.928;2024-03-02T16:08:48;6.85;;;5.47;;
6467;SDS011;3267;48.794;9.928;2024-03-02T16:11:14;7.30;;;5.15;;
6467;SDS011;3267;48.794;9.928;2024-03-02T16:13:40;6.03;;;5.40;;
6467;SDS011;3267;48.794;9.928;2024-03-02T16:16:07;6.78;;;5.22;;
6467;SDS011;3267;48.794;9.928;2024-03-02T16:18:33;7.80;;;5.10;;
6467;SDS011;3267;48.794;9.928;2024-03-02T16:20:59;7.75;;;6.22;;
6467;SDS011;3267;48.794;9.928;2024-03-02T16:23:25;8.35;;;6.47;;
6467;SDS011;3267;48.794;9.928;2024-03-02T16:25:50;7.50;;;6.00;;
6467;SDS011;3267;48.794;9.928;2024-03-02T16:28:17;8.48;;;5.75;;
6467;SDS011;3267;48.794;9.928;2024-03-02T16:30:42;7.38;;;5.70;;
6467;SDS011;3267;48.794;9.928;2024-03-02T16:33:08;9.50;;;7.05;;
6467;SDS011;3267;48.794;9.928;2024-03-02T16:35:34;7.18;;;5.72;;
6467;SDS011;3267;48.794;9.928;2024-03-02T16:37:59;7.88;;;6.97;;
6467;SDS011;3267;48.794;9.928;2024-03-02T16:40:25;8.63;;;6.65;;
6467;SDS011;3267;48.794;9.928;2024-03-02T16:42:51;9.20;;;6.80;;
6467;SDS011;3267;48.794;9.928;2024-03-02T16:45:17;10.02;;;6.78;;
6467;SDS011;3267;48.794;9.928;2024-03-02T16:47:43;8.85;;;6.40;;
6467;SDS011;3267;48.794;9.928;2024-03-02T16:50:09;9.48;;;6.65;;
6467;SDS011;3267;48.794;9.928;2024-03-02T16:52:37;12.43;;;8.90;;
6467;SDS011;3267;48.794;9.928;2024-03-02T16:55:02;12.02;;;7.55;;
6467;SDS011;3267;48.794;9.928;2024-03-02T16:57:29;10.07;;;7.40;;
6467;SDS011;3267;48.794;9.928;2024-03-02T16:59:55;11.98;;;7.50;;
6467;SDS011;3267;48.794;9.928;2024-03-02T17:02:21;9.05;;;7.30;;
6467;SDS011;3267;48.794;9.928;2024-03-02T17:04:48;8.77;;;7.45;;
6467;SDS011;3267;48.794;9.928;2024-03-02T17:07:13;11.43;;;7.50;;
6467;SDS011;3267;48.794;9.928;2024-03-02T17:09:39;9.30;;;7.38;;
6467;SDS011;3267;48.794;9.928;2024-03-02T17:12:05;10.20;;;7.70;;
6467;SDS011;3267;48.794;9.928;2024-03-02T17:14:30;10.77;;;8.30;;
6467;SDS011;3267;48.794;9.928;2024-03-02T17:16:56;11.10;;;8.80;;
6467;SDS011;3267;48.794;9.928;2024-03-02T17:19:23;15.60;;;8.35;;
6467;SDS011;3267;48.794;9.928;2024-03-02T17:21:49;10.45;;;8.05;;
6467;SDS011;3267;48.794;9.928;2024-03-02T17:24:14;12.50;;;8.95;;
6467;SDS011;3267;48.794;9.928;2024-03-02T17:26:40;10.88;;;8.38;;
6467;SDS011;3267;48.794;9.928;2024-03-02T17:29:06;12.93;;;8.82;;
6467;SDS011;3267;48.794;9.928;2024-03-02T17:31:31;10.73;;;8.25;;
6467;SDS011;3267;48.794;9.928;2024-03-02T17:33:57;13.70;;;9.32;;
6467;SDS011;3267;48.794;9.928;2024-03-02T17:36:23;11.38;;;8.98;;
6467;SDS011;3267;48.794;9.928;2024-03-02T17:38:49;12.05;;;9.32;;
6467;SDS011;3267;48.794;9.928;2024-03-02T17:41:15;12.45;;;9.45;;
6467;SDS011;3267;48.794;9.928;2024-03-02T17:43:41;13.55;;;10.10;;
6467;SDS011;3267;48.794;9.928;2024-03-02T17:46:07;15.23;;;10.40;;
6467;SDS011;3267;48.794;9.928;2024-03-02T17:48:32;15.73;;;10.80;;
6467;SDS011;3267;48.794;9.928;2024-03-02T17:50:58;13.50;;;10.35;;
6467;SDS011;3267;48.794;9.928;2024-03-02T17:53:23;8.27;;;6.72;;
6467;SDS011;3267;48.794;9.928;2024-03-02T17:55:49;16.88;;;12.38;;
6467;SDS011;3267;48.794;9.928;2024-03-02T17:58:15;14.02;;;10.98;;
6467;SDS011;3267;48.794;9.928;2024-03-02T18:00:41;13.25;;;9.88;;
6467;SDS011;3267;48.794;9.928;2024-03-02T18:03:07;12.25;;;8.45;;
6467;SDS011;3267;48.794;9.928;2024-03-02T18:05:32;14.90;;;11.30;;
6467;SDS011;3267;48.794;9.928;2024-03-02T18:07:58;12.77;;;10.13;;
6467;SDS011;3267;48.794;9.928;2024-03-02T18:10:24;13.38;;;11.07;;
6467;SDS011;3267;48.794;9.928;2024-03-02T18:12:52;15.55;;;12.38;;
6467;SDS011;3267;48.794;9.928;2024-03-02T18:15:17;15.68;;;11.60;;
6467;SDS011;3267;48.794;9.928;2024-03-02T18:17:43;15.38;;;11.93;;
6467;SDS011;3267;48.794;9.928;2024-03-02T18:20:12;14.15;;;11.40;;
6467;SDS011;3267;48.794;9.928;2024-03-02T18:22:37;17.48;;;12.77;;
6467;SDS011;3267;48.794;9.928;2024-03-02T18:25:03;15.90;;;12.30;;
6467;SDS011;3267;48.794;9.928;2024-03-02T18:27:29;17.65;;;12.52;;
6467;SDS011;3267;48.794;9.928;2024-03-02T18:29:55;16.77;;;12.20;;
6467;SDS011;3267;48.794;9.928;2024-03-02T18:32:21;11.00;;;7.40;;
6467;SDS011;3267;48.794;9.928;2024-03-02T18:34:46;15.15;;;10.35;;
6467;SDS011;3267;48.794;9.928;2024-03-02T18:37:12;13.23;;;9.38;;
6467;SDS011;3267;48.794;9.928;2024-03-02T18:39:47;12.02;;;9.77;;
6467;SDS011;3267;48.794;9.928;2024-03-02T18:42:13;15.82;;;11.68;;
6467;SDS011;3267;48.794;9.928;2024-03-02T18:44:40;14.30;;;10.35;;
6467;SDS011;3267;48.794;9.928;2024-03-02T18:47:06;9.43;;;6.43;;
6467;SDS011;3267;48.794;9.928;2024-03-02T18:49:32;14.82;;;10.77;;
6467;SDS011;3267;48.794;9.928;2024-03-02T18:51:58;15.30;;;10.85;;
6467;SDS011;3267;48.794;9.928;2024-03-02T18:54:24;15.52;;;10.90;;
6467;SDS011;3267;48.794;9.928;2024-03-02T18:56:49;13.27;;;9.20;;
6467;SDS011;3267;48.794;9.928;2024-03-02T18:59:15;14.15;;;8.43;;
6467;SDS011;3267;48.794;9.928;2024-03-02T19:01:41;17.67;;;11.30;;
6467;SDS011;3267;48.794;9.928;2024-03-02T19:04:06;14.15;;;9.77;;
6467;SDS011;3267;48.794;9.928;2024-03-02T19:06:32;11.85;;;8.38;;
6467;SDS011;3267;48.794;9.928;2024-03-02T19:08:58;13.57;;;9.50;;
6467;SDS011;3267;48.794;9.928;2024-03-02T19:11:23;14.90;;;8.65;;
6467;SDS011;3267;48.794;9.928;2024-03-02T19:13:49;14.52;;;11.18;;
6467;SDS011;3267;48.794;9.928;2024-03-02T19:16:17;14.63;;;10.23;;
6467;SDS011;3267;48.794;9.928;2024-03-02T19:18:42;18.92;;;10.25;;
6467;SDS011;3267;48.794;9.928;2024-03-02T19:21:09;14.88;;;10.75;;
6467;SDS011;3267;48.794;9.928;2024-03-02T19:23:36;17.55;;;11.65;;
6467;SDS011;3267;48.794;9.928;2024-03-02T19:26:02;16.50;;;10.75;;
6467;SDS011;3267;48.794;9.928;2024-03-02T19:28:29;14.80;;;10.63;;
6467;SDS011;3267;48.794;9.928;2024-03-02T19:30:54;16.02;;;10.13;;
6467;SDS011;3267;48.794;9.928;2024-03-02T19:33:20;14.07;;;8.30;;
6467;SDS011;3267;48.794;9.928;2024-03-02T19:35:46;16.40;;;9.85;;
6467;SDS011;3267;48.794;9.928;2024-03-02T19:38:12;15.48;;;9.55;;
6467;SDS011;3267;48.794;9.928;2024-03-02T19:40:38;11.77;;;8.75;;
6467;SDS011;3267;48.794;9.928;2024-03-02T19:43:04;12.93;;;8.38;;
6467;SDS011;3267;48.794;9.928;2024-03-02T19:45:30;16.73;;;8.75;;
6467;SDS011;3267;48.794;9.928;2024-03-02T19:47:56;16.27;;;10.48;;
6467;SDS011;3267;48.794;9.928;2024-03-02T19:50:22;14.40;;;10.57;;
6467;SDS011;3267;48.794;9.928;2024-03-02T19:52:47;10.57;;;7.40;;
6467;SDS011;3267;48.794;9.928;2024-03-02T19:55:13;15.95;;;10.55;;
6467;SDS011;3267;48.794;9.928;2024-03-02T19:57:39;12.25;;;8.43;;
6467;SDS011;3267;48.794;9.928;2024-03-02T20:00:12;6.20;;;4.55;;
6467;SDS011;3267;48.794;9.928;2024-03-02T20:02:41;16.52;;;12.25;;
6467;SDS011;3267;48.794;9.928;2024-03-02T20:05:07;14.93;;;9.20;;
6467;SDS011;3267;48.794;9.928;2024-03-02T20:07:33;15.45;;;10.60;;
6467;SDS011;3267;48.794;9.928;2024-03-02T20:10:05;16.23;;;11.15;;
6467;SDS011;3267;48.794;9.928;2024-03-02T20:12:34;15.10;;;10.15;;
6467;SDS011;3267;48.794;9.928;2024-03-02T20:15:01;16.20;;;9.95;;
6467;SDS011;3267;48.794;9.928;2024-03-02T20:17:27;18.33;;;12.55;;
6467;SDS011;3267;48.794;9.928;2024-03-02T20:19:52;13.10;;;8.18;;
6467;SDS011;3267;48.794;9.928;2024-03-02T20:22:18;16.02;;;10.60;;
6467;SDS011;3267;48.794;9.928;2024-03-02T20:24:44;11.75;;;8.20;;
6467;SDS011;3267;48.794;9.928;2024-03-02T20:27:10;4.70;;;3.30;;
6467;SDS011;3267;48.794;9.928;2024-03-02T20:29:36;13.80;;;9.63;;